Decaturville, Tennessee
Current Conditions -  °F | °C
As of 3:35 AM on Thursday 27 Nov 2014 (Local Time) from KPVE Reporting Station
Overcast Overcast  
Wind Chill: 33°   Ceiling: 2700
Heat Index: 39°   Visibility: 10mi
Dew Point: 30°   Wind: 9mph
Humidity: 70%   Direction: 310°NW
Pressure: 30.22"   Gusts: NA
Location:  35.58°N, 88.12°W
Report Text: KPVE 270935Z AUTO 31008KT 10SM BKN027 BKN031 OVC040 04/M01 A3022 RMK
Loading
Personal Weather Stations






























Interactive Weather Map New forecast layout! Learn more

10-Day Weather Forecast

Advertisements
Track Severe Weather on mobile